Kalaeloa, HI

11:23 AM HST on September 30, 2014 (GMT -1000)
Kapolei | Change Station
CLOSE
Current Station
Personal Weather Station
Location: Kapolei, HI
Elevation: 108 ft
Nearby Weather Stations

Elev 108 ft 21.35 °N, 158.06 °W | Updated 3 minutes ago

Clear
Clear
86.6 °F
Feels Like 86 °F
N
7.0
Wind Variable Wind from SW
Gusts 17.0 mph

Today
High -- | Low -- °F
--% Chance of Precip.
Yesterday
High -- | Low -- °F
Precip. -- in
6:23 AM 6:20 PM
Waxing Crescent, 40% visible
Pressure 29.98 in
Visibility -9999.0 miles
Clouds Clear
Heat Index 86 °F
Dew Point 59 °F
Humidity 40%
Rainfall 0.00 in
Snow Depth Not available.
UV 6.5 out of 12
Pollen Not available.
Air Quality Not available.
Flu Activity Not available.
METAR PHJR 302053Z 16005KT CLR 29/23 A2996 RMK AO2 SLP152 T02940233 58002 $

More Conditions Fewer Conditions

Pressure 29.98 in
Visibility -9999.0 miles
Clouds Clear
Heat Index 86 °F
Dew Point 59 °F
Humidity 40%
Rainfall 0.00 in
Snow Depth Not available.
UV 6.5 out of 12
Pollen Not available.
Air Quality Not available.
Flu Activity Not available.
METAR PHJR 302053Z 16005KT CLR 29/23 A2996 RMK AO2 SLP152 T02940233 58002 $

More Conditions Fewer Conditions

10-Day Weather Forecast

Almanac

Astronomy

Sep. 30, 2014 Rise Set
Actual Time 6:23 AM HST 6:20 PM HST
Civil Twilight 6:01 AM HST 6:42 PM HST
Nautical Twilight 5:35 AM HST 7:08 PM HST
Astronomical Twilight 5:09 AM HST 7:34 PM HST
Moon 12:09 PM HST 11:33 PM HST
Length of Visible Light 12h 41m
Length of Day
11h 57m
Tomorrow will be 1m 12s shorter.
Waxing Crescent, 40% of the Moon is Illuminated
Today
Waxing Crescent
Oct 1
First Quarter
Oct 8
Full
Oct 15
Last Quarter
Oct 23
New

Today's Extremes

State Highs State Lows

Community

WunderPhotos

Upload Photos

1,757,755 photos uploaded!

Nearby

Snow Depth

Station Depth Elevation
No new snow has been reported.

Earthquake Activity

City Distance Mag. Time & Date
No recent earthquake activity has been reported nearby.
Minimum magnitude displayed is 2.5.

Coastal Water Temperatures

Place Temperature
No Stations Reporting

Nearby Weather Stations